sensor_id;sensor_type;location;lat;lon;timestamp;temperature;humidity
5647;DHT22;2845;48.626;9.362;2023-06-10T00:01:34;15.40;90.00
5647;DHT22;2845;48.626;9.362;2023-06-10T00:04:10;15.40;89.60
5647;DHT22;2845;48.626;9.362;2023-06-10T00:06:45;16.90;90.00
5647;DHT22;2845;48.626;9.362;2023-06-10T00:09:21;13.80;89.20
5647;DHT22;2845;48.626;9.362;2023-06-10T00:11:55;15.30;90.00
5647;DHT22;2845;48.626;9.362;2023-06-10T00:14:32;15.10;90.20
5647;DHT22;2845;48.626;9.362;2023-06-10T00:17:06;15.40;90.20
5647;DHT22;2845;48.626;9.362;2023-06-10T00:19:44;15.20;90.40
5647;DHT22;2845;48.626;9.362;2023-06-10T00:22:19;15.10;90.40
5647;DHT22;2845;48.626;9.362;2023-06-10T00:24:55;15.20;90.20
5647;DHT22;2845;48.626;9.362;2023-06-10T00:27:29;15.00;90.60
5647;DHT22;2845;48.626;9.362;2023-06-10T00:30:08;15.10;90.40
5647;DHT22;2845;48.626;9.362;2023-06-10T00:32:43;15.10;90.60
5647;DHT22;2845;48.626;9.362;2023-06-10T00:35:19;15.00;90.60
5647;DHT22;2845;48.626;9.362;2023-06-10T00:37:53;15.00;90.60
5647;DHT22;2845;48.626;9.362;2023-06-10T00:40:27;15.00;90.80
5647;DHT22;2845;48.626;9.362;2023-06-10T00:43:01;14.90;90.60
5647;DHT22;2845;48.626;9.362;2023-06-10T00:45:35;14.90;90.60
5647;DHT22;2845;48.626;9.362;2023-06-10T00:48:09;14.90;90.80
5647;DHT22;2845;48.626;9.362;2023-06-10T00:50:45;14.90;90.80
5647;DHT22;2845;48.626;9.362;2023-06-10T00:53:20;14.80;90.60
5647;DHT22;2845;48.626;9.362;2023-06-10T00:55:55;14.80;90.80
5647;DHT22;2845;48.626;9.362;2023-06-10T00:58:29;14.70;90.90
5647;DHT22;2845;48.626;9.362;2023-06-10T01:01:03;13.30;90.70
5647;DHT22;2845;48.626;9.362;2023-06-10T01:03:38;14.70;91.20
5647;DHT22;2845;48.626;9.362;2023-06-10T01:06:22;15.00;91.40
5647;DHT22;2845;48.626;9.362;2023-06-10T01:09:06;14.70;91.30
5647;DHT22;2845;48.626;9.362;2023-06-10T01:11:49;14.50;91.50
5647;DHT22;2845;48.626;9.362;2023-06-10T01:14:29;14.50;91.80
5647;DHT22;2845;48.626;9.362;2023-06-10T01:17:06;14.50;91.80
5647;DHT22;2845;48.626;9.362;2023-06-10T01:19:41;14.50;91.60
5647;DHT22;2845;48.626;9.362;2023-06-10T01:22:18;14.50;91.80
5647;DHT22;2845;48.626;9.362;2023-06-10T01:24:53;14.50;91.60
5647;DHT22;2845;48.626;9.362;2023-06-10T01:27:33;14.50;91.80
5647;DHT22;2845;48.626;9.362;2023-06-10T01:30:15;14.70;91.70
5647;DHT22;2845;48.626;9.362;2023-06-10T01:32:52;14.40;91.50
5647;DHT22;2845;48.626;9.362;2023-06-10T01:35:29;14.40;91.70
5647;DHT22;2845;48.626;9.362;2023-06-10T01:38:06;14.60;91.90
5647;DHT22;2845;48.626;9.362;2023-06-10T01:40:41;14.30;91.60
5647;DHT22;2845;48.626;9.362;2023-06-10T01:43:16;14.30;91.80
5647;DHT22;2845;48.626;9.362;2023-06-10T01:45:50;14.20;91.90
5647;DHT22;2845;48.626;9.362;2023-06-10T01:48:24;14.10;91.70
5647;DHT22;2845;48.626;9.362;2023-06-10T01:50:58;14.20;91.90
5647;DHT22;2845;48.626;9.362;2023-06-10T01:53:34;14.20;92.00
5647;DHT22;2845;48.626;9.362;2023-06-10T01:56:08;14.10;92.00
5647;DHT22;2845;48.626;9.362;2023-06-10T01:58:42;11.10;91.20
5647;DHT22;2845;48.626;9.362;2023-06-10T02:01:17;14.10;91.80
5647;DHT22;2845;48.626;9.362;2023-06-10T02:03:51;14.10;92.00
5647;DHT22;2845;48.626;9.362;2023-06-10T02:06:25;14.00;91.80
5647;DHT22;2845;48.626;9.362;2023-06-10T02:09:01;11.70;91.30
5647;DHT22;2845;48.626;9.362;2023-06-10T02:11:35;14.10;92.30
5647;DHT22;2845;48.626;9.362;2023-06-10T02:14:09;13.90;92.40
5647;DHT22;2845;48.626;9.362;2023-06-10T02:16:43;13.90;92.30
5647;DHT22;2845;48.626;9.362;2023-06-10T02:19:19;13.90;92.20
5647;DHT22;2845;48.626;9.362;2023-06-10T02:21:54;13.90;92.20
5647;DHT22;2845;48.626;9.362;2023-06-10T02:24:29;13.80;92.00
5647;DHT22;2845;48.626;9.362;2023-06-10T02:27:04;13.90;92.10
5647;DHT22;2845;48.626;9.362;2023-06-10T02:29:39;13.70;92.30
5647;DHT22;2845;48.626;9.362;2023-06-10T02:32:14;13.80;92.40
5647;DHT22;2845;48.626;9.362;2023-06-10T02:34:49;13.80;92.40
5647;DHT22;2845;48.626;9.362;2023-06-10T02:37:23;13.90;92.30
5647;DHT22;2845;48.626;9.362;2023-06-10T02:39:58;13.70;92.30
5647;DHT22;2845;48.626;9.362;2023-06-10T02:42:33;13.60;92.30
5647;DHT22;2845;48.626;9.362;2023-06-10T02:45:08;13.50;92.30
5647;DHT22;2845;48.626;9.362;2023-06-10T02:47:43;13.50;92.40
5647;DHT22;2845;48.626;9.362;2023-06-10T02:50:17;13.50;92.80
5647;DHT22;2845;48.626;9.362;2023-06-10T02:52:51;13.50;92.80
5647;DHT22;2845;48.626;9.362;2023-06-10T02:55:26;13.50;92.70
5647;DHT22;2845;48.626;9.362;2023-06-10T02:58:01;13.60;92.60
5647;DHT22;2845;48.626;9.362;2023-06-10T03:00:36;13.50;92.60
5647;DHT22;2845;48.626;9.362;2023-06-10T03:03:13;13.50;92.60
5647;DHT22;2845;48.626;9.362;2023-06-10T03:05:47;13.40;92.60
5647;DHT22;2845;48.626;9.362;2023-06-10T03:08:21;13.40;92.80
5647;DHT22;2845;48.626;9.362;2023-06-10T03:10:57;13.40;92.80
5647;DHT22;2845;48.626;9.362;2023-06-10T03:13:32;13.40;93.10
5647;DHT22;2845;48.626;9.362;2023-06-10T03:16:06;13.30;92.80
5647;DHT22;2845;48.626;9.362;2023-06-10T03:18:40;13.30;93.00
5647;DHT22;2845;48.626;9.362;2023-06-10T03:21:15;13.20;92.80
5647;DHT22;2845;48.626;9.362;2023-06-10T03:23:49;13.20;93.00
5647;DHT22;2845;48.626;9.362;2023-06-10T03:26:26;13.20;93.00
5647;DHT22;2845;48.626;9.362;2023-06-10T03:29:00;13.30;92.80
5647;DHT22;2845;48.626;9.362;2023-06-10T03:31:34;13.00;92.60
5647;DHT22;2845;48.626;9.362;2023-06-10T03:34:09;13.00;92.90
5647;DHT22;2845;48.626;9.362;2023-06-10T03:36:43;12.90;92.80
5647;DHT22;2845;48.626;9.362;2023-06-10T03:39:17;12.90;93.30
5647;DHT22;2845;48.626;9.362;2023-06-10T03:41:53;13.00;93.40
5647;DHT22;2845;48.626;9.362;2023-06-10T03:44:27;13.10;93.50
5647;DHT22;2845;48.626;9.362;2023-06-10T03:47:01;13.10;93.30
5647;DHT22;2845;48.626;9.362;2023-06-10T03:49:35;13.20;93.40
5647;DHT22;2845;48.626;9.362;2023-06-10T03:52:09;13.10;93.40
5647;DHT22;2845;48.626;9.362;2023-06-10T03:54:43;13.10;93.20
5647;DHT22;2845;48.626;9.362;2023-06-10T03:57:19;13.20;93.40
5647;DHT22;2845;48.626;9.362;2023-06-10T03:59:53;13.20;93.40
5647;DHT22;2845;48.626;9.362;2023-06-10T04:02:28;13.20;93.50
5647;DHT22;2845;48.626;9.362;2023-06-10T04:05:02;13.30;93.50
5647;DHT22;2845;48.626;9.362;2023-06-10T04:07:37;13.40;93.50
5647;DHT22;2845;48.626;9.362;2023-06-10T04:10:13;13.30;93.40
5647;DHT22;2845;48.626;9.362;2023-06-10T04:12:49;13.50;93.30
5647;DHT22;2845;48.626;9.362;2023-06-10T04:15:23;13.30;93.30
5647;DHT22;2845;48.626;9.362;2023-06-10T04:17:58;13.30;93.40
5647;DHT22;2845;48.626;9.362;2023-06-10T04:20:32;13.20;93.40
5647;DHT22;2845;48.626;9.362;2023-06-10T04:23:06;13.30;93.50
5647;DHT22;2845;48.626;9.362;2023-06-10T04:25:40;13.40;93.50
5647;DHT22;2845;48.626;9.362;2023-06-10T04:28:16;13.50;93.40
5647;DHT22;2845;48.626;9.362;2023-06-10T04:30:50;13.50;93.20
5647;DHT22;2845;48.626;9.362;2023-06-10T04:33:24;13.50;93.20
5647;DHT22;2845;48.626;9.362;2023-06-10T04:35:59;13.50;93.20
5647;DHT22;2845;48.626;9.362;2023-06-10T04:38:33;13.60;93.50
5647;DHT22;2845;48.626;9.362;2023-06-10T04:41:07;13.60;93.40
5647;DHT22;2845;48.626;9.362;2023-06-10T04:43:42;13.70;93.30
5647;DHT22;2845;48.626;9.362;2023-06-10T04:46:16;13.80;93.10
5647;DHT22;2845;48.626;9.362;2023-06-10T04:48:51;13.90;93.00
5647;DHT22;2845;48.626;9.362;2023-06-10T04:51:27;14.00;93.20
5647;DHT22;2845;48.626;9.362;2023-06-10T04:54:02;14.10;93.10
5647;DHT22;2845;48.626;9.362;2023-06-10T04:56:36;14.20;93.10
5647;DHT22;2845;48.626;9.362;2023-06-10T04:59:13;14.40;92.80
5647;DHT22;2845;48.626;9.362;2023-06-10T05:01:48;15.30;93.10
5647;DHT22;2845;48.626;9.362;2023-06-10T05:04:22;14.70;92.80
5647;DHT22;2845;48.626;9.362;2023-06-10T05:06:56;14.80;92.80
5647;DHT22;2845;48.626;9.362;2023-06-10T05:09:30;15.40;92.80
5647;DHT22;2845;48.626;9.362;2023-06-10T05:12:06;15.00;92.50
5647;DHT22;2845;48.626;9.362;2023-06-10T05:14:43;15.20;92.20
5647;DHT22;2845;48.626;9.362;2023-06-10T05:17:17;15.30;92.10
5647;DHT22;2845;48.626;9.362;2023-06-10T05:19:51;15.40;91.90
5647;DHT22;2845;48.626;9.362;2023-06-10T05:22:25;15.50;91.80
5647;DHT22;2845;48.626;9.362;2023-06-10T05:25:00;15.70;91.70
5647;DHT22;2845;48.626;9.362;2023-06-10T05:27:34;16.00;91.60
5647;DHT22;2845;48.626;9.362;2023-06-10T05:30:10;15.90;91.40
5647;DHT22;2845;48.626;9.362;2023-06-10T05:32:45;16.00;91.40
5647;DHT22;2845;48.626;9.362;2023-06-10T05:35:19;16.20;91.40
5647;DHT22;2845;48.626;9.362;2023-06-10T05:37:53;16.30;91.20
5647;DHT22;2845;48.626;9.362;2023-06-10T05:40:27;16.40;91.10
5647;DHT22;2845;48.626;9.362;2023-06-10T05:43:01;16.60;91.00
5647;DHT22;2845;48.626;9.362;2023-06-10T05:45:37;16.70;90.90
5647;DHT22;2845;48.626;9.362;2023-06-10T05:48:13;16.90;90.80
5647;DHT22;2845;48.626;9.362;2023-06-10T05:50:47;17.10;90.70
5647;DHT22;2845;48.626;9.362;2023-06-10T05:53:21;17.20;90.50
5647;DHT22;2845;48.626;9.362;2023-06-10T05:55:56;17.40;90.30
5647;DHT22;2845;48.626;9.362;2023-06-10T05:58:31;17.60;90.10
5647;DHT22;2845;48.626;9.362;2023-06-10T06:01:06;17.80;89.80
5647;DHT22;2845;48.626;9.362;2023-06-10T06:03:41;17.90;89.10
5647;DHT22;2845;48.626;9.362;2023-06-10T06:06:15;18.10;88.80
5647;DHT22;2845;48.626;9.362;2023-06-10T06:08:49;18.20;88.40
5647;DHT22;2845;48.626;9.362;2023-06-10T06:11:23;18.30;88.10
5647;DHT22;2845;48.626;9.362;2023-06-10T06:13:59;18.40;87.80
5647;DHT22;2845;48.626;9.362;2023-06-10T06:16:34;18.60;87.60
5647;DHT22;2845;48.626;9.362;2023-06-10T06:19:08;18.60;87.90
5647;DHT22;2845;48.626;9.362;2023-06-10T06:21:44;18.70;86.90
5647;DHT22;2845;48.626;9.362;2023-06-10T06:24:18;18.90;88.00
5647;DHT22;2845;48.626;9.362;2023-06-10T06:26:52;19.00;87.70
5647;DHT22;2845;48.626;9.362;2023-06-10T06:29:26;19.10;87.90
5647;DHT22;2845;48.626;9.362;2023-06-10T06:32:05;19.30;88.10
5647;DHT22;2845;48.626;9.362;2023-06-10T06:34:39;19.40;88.10
5647;DHT22;2845;48.626;9.362;2023-06-10T06:37:13;19.60;87.90
5647;DHT22;2845;48.626;9.362;2023-06-10T06:39:48;19.90;87.60
5647;DHT22;2845;48.626;9.362;2023-06-10T06:42:22;20.00;86.20
5647;DHT22;2845;48.626;9.362;2023-06-10T06:44:56;20.10;85.70
5647;DHT22;2845;48.626;9.362;2023-06-10T06:47:31;20.20;86.40
5647;DHT22;2845;48.626;9.362;2023-06-10T06:50:06;20.40;86.40
5647;DHT22;2845;48.626;9.362;2023-06-10T06:52:40;24.20;87.30
5647;DHT22;2845;48.626;9.362;2023-06-10T06:55:14;20.60;86.20
5647;DHT22;2845;48.626;9.362;2023-06-10T06:57:49;20.70;85.70
5647;DHT22;2845;48.626;9.362;2023-06-10T07:00:23;20.90;84.80
5647;DHT22;2845;48.626;9.362;2023-06-10T07:02:58;21.10;84.00
5647;DHT22;2845;48.626;9.362;2023-06-10T07:05:33;21.30;83.10
5647;DHT22;2845;48.626;9.362;2023-06-10T07:08:07;21.40;81.40
5647;DHT22;2845;48.626;9.362;2023-06-10T07:10:41;18.50;81.30
5647;DHT22;2845;48.626;9.362;2023-06-10T07:13:16;21.50;83.10
5647;DHT22;2845;48.626;9.362;2023-06-10T07:15:50;21.60;82.20
5647;DHT22;2845;48.626;9.362;2023-06-10T07:18:25;21.70;81.50
5647;DHT22;2845;48.626;9.362;2023-06-10T07:20:59;21.80;82.60
5647;DHT22;2845;48.626;9.362;2023-06-10T07:23:34;21.90;82.30
5647;DHT22;2845;48.626;9.362;2023-06-10T07:26:08;22.00;82.40
5647;DHT22;2845;48.626;9.362;2023-06-10T07:28:43;22.10;82.10
5647;DHT22;2845;48.626;9.362;2023-06-10T07:31:17;22.20;80.60
5647;DHT22;2845;48.626;9.362;2023-06-10T07:33:53;22.30;81.40
5647;DHT22;2845;48.626;9.362;2023-06-10T07:36:27;22.30;81.50
5647;DHT22;2845;48.626;9.362;2023-06-10T07:39:02;22.40;81.30
5647;DHT22;2845;48.626;9.362;2023-06-10T07:41:36;22.50;82.10
5647;DHT22;2845;48.626;9.362;2023-06-10T07:44:11;22.60;81.00
5647;DHT22;2845;48.626;9.362;2023-06-10T07:46:47;22.70;80.60
5647;DHT22;2845;48.626;9.362;2023-06-10T07:49:22;22.80;80.90
5647;DHT22;2845;48.626;9.362;2023-06-10T07:51:57;22.90;80.60
5647;DHT22;2845;48.626;9.362;2023-06-10T07:54:31;23.10;80.10
5647;DHT22;2845;48.626;9.362;2023-06-10T07:57:06;23.20;80.40
5647;DHT22;2845;48.626;9.362;2023-06-10T07:59:40;23.30;80.80
5647;DHT22;2845;48.626;9.362;2023-06-10T08:02:17;23.40;80.20
5647;DHT22;2845;48.626;9.362;2023-06-10T08:04:52;23.40;80.40
5647;DHT22;2845;48.626;9.362;2023-06-10T08:07:27;23.50;79.80
5647;DHT22;2845;48.626;9.362;2023-06-10T08:10:01;24.00;79.50
5647;DHT22;2845;48.626;9.362;2023-06-10T08:12:36;23.70;79.50
5647;DHT22;2845;48.626;9.362;2023-06-10T08:15:11;23.70;79.20
5647;DHT22;2845;48.626;9.362;2023-06-10T08:17:45;23.80;78.30
5647;DHT22;2845;48.626;9.362;2023-06-10T08:20:20;24.00;78.30
5647;DHT22;2845;48.626;9.362;2023-06-10T08:22:55;24.10;77.30
5647;DHT22;2845;48.626;9.362;2023-06-10T08:25:29;24.20;78.20
5647;DHT22;2845;48.626;9.362;2023-06-10T08:28:03;24.30;78.10
5647;DHT22;2845;48.626;9.362;2023-06-10T08:30:37;24.30;76.50
5647;DHT22;2845;48.626;9.362;2023-06-10T08:33:11;24.60;76.90
5647;DHT22;2845;48.626;9.362;2023-06-10T08:35:47;24.70;76.30
5647;DHT22;2845;48.626;9.362;2023-06-10T08:38:21;24.80;76.00
5647;DHT22;2845;48.626;9.362;2023-06-10T08:40:56;24.90;74.90
5647;DHT22;2845;48.626;9.362;2023-06-10T08:43:36;25.00;74.40
5647;DHT22;2845;48.626;9.362;2023-06-10T08:46:14;25.00;74.50
5647;DHT22;2845;48.626;9.362;2023-06-10T08:48:51;25.10;74.40
5647;DHT22;2845;48.626;9.362;2023-06-10T08:51:31;26.40;74.70
5647;DHT22;2845;48.626;9.362;2023-06-10T08:54:15;25.20;73.70
5647;DHT22;2845;48.626;9.362;2023-06-10T08:56:54;25.30;74.10
5647;DHT22;2845;48.626;9.362;2023-06-10T08:59:29;25.30;73.20
5647;DHT22;2845;48.626;9.362;2023-06-10T09:02:04;25.40;73.60
5647;DHT22;2845;48.626;9.362;2023-06-10T09:04:39;25.60;73.30
5647;DHT22;2845;48.626;9.362;2023-06-10T09:07:15;25.60;72.90
5647;DHT22;2845;48.626;9.362;2023-06-10T09:09:49;25.50;73.50
5647;DHT22;2845;48.626;9.362;2023-06-10T09:12:26;25.60;72.70
5647;DHT22;2845;48.626;9.362;2023-06-10T09:15:02;25.70;72.70
5647;DHT22;2845;48.626;9.362;2023-06-10T09:17:36;25.90;72.70
5647;DHT22;2845;48.626;9.362;2023-06-10T09:20:11;26.10;72.20
5647;DHT22;2845;48.626;9.362;2023-06-10T09:22:47;26.20;71.40
5647;DHT22;2845;48.626;9.362;2023-06-10T09:25:34;26.60;71.30
5647;DHT22;2845;48.626;9.362;2023-06-10T09:28:14;26.60;70.70
5647;DHT22;2845;48.626;9.362;2023-06-10T09:30:49;26.70;70.60
5647;DHT22;2845;48.626;9.362;2023-06-10T09:33:24;26.80;71.30
5647;DHT22;2845;48.626;9.362;2023-06-10T09:36:01;26.60;70.70
5647;DHT22;2845;48.626;9.362;2023-06-10T09:38:37;26.60;70.90
5647;DHT22;2845;48.626;9.362;2023-06-10T09:41:12;26.80;71.20
5647;DHT22;2845;48.626;9.362;2023-06-10T09:43:48;26.80;70.60
5647;DHT22;2845;48.626;9.362;2023-06-10T09:46:22;26.80;69.30
5647;DHT22;2845;48.626;9.362;2023-06-10T09:48:58;26.70;69.90
5647;DHT22;2845;48.626;9.362;2023-06-10T09:51:33;26.60;70.40
5647;DHT22;2845;48.626;9.362;2023-06-10T09:54:08;26.50;70.60
5647;DHT22;2845;48.626;9.362;2023-06-10T09:56:42;26.60;70.80
5647;DHT22;2845;48.626;9.362;2023-06-10T09:59:28;26.60;70.50
5647;DHT22;2845;48.626;9.362;2023-06-10T10:02:04;26.80;70.80
5647;DHT22;2845;48.626;9.362;2023-06-10T10:04:42;26.90;70.30
5647;DHT22;2845;48.626;9.362;2023-06-10T10:07:17;27.00;69.70
5647;DHT22;2845;48.626;9.362;2023-06-10T10:09:53;26.90;70.40
5647;DHT22;2845;48.626;9.362;2023-06-10T10:12:27;26.90;70.20
5647;DHT22;2845;48.626;9.362;2023-06-10T10:15:02;27.00;70.30
5647;DHT22;2845;48.626;9.362;2023-06-10T10:17:40;27.20;69.60
5647;DHT22;2845;48.626;9.362;2023-06-10T10:20:22;27.50;69.50
5647;DHT22;2845;48.626;9.362;2023-06-10T10:23:03;27.80;69.00
5647;DHT22;2845;48.626;9.362;2023-06-10T10:25:40;27.80;68.90
5647;DHT22;2845;48.626;9.362;2023-06-10T10:28:19;28.00;68.60
5647;DHT22;2845;48.626;9.362;2023-06-10T10:30:59;28.20;67.60
5647;DHT22;2845;48.626;9.362;2023-06-10T10:33:50;28.10;67.00
5647;DHT22;2845;48.626;9.362;2023-06-10T10:36:32;27.90;67.90
5647;DHT22;2845;48.626;9.362;2023-06-10T10:39:07;27.80;68.50
5647;DHT22;2845;48.626;9.362;2023-06-10T10:41:43;26.80;66.60
5647;DHT22;2845;48.626;9.362;2023-06-10T10:44:18;27.90;67.30
5647;DHT22;2845;48.626;9.362;2023-06-10T10:46:53;27.90;67.00
5647;DHT22;2845;48.626;9.362;2023-06-10T10:49:29;28.00;67.70
5647;DHT22;2845;48.626;9.362;2023-06-10T10:52:04;28.10;64.90
5647;DHT22;2845;48.626;9.362;2023-06-10T10:54:44;28.20;66.30
5647;DHT22;2845;48.626;9.362;2023-06-10T10:57:22;28.50;66.00
5647;DHT22;2845;48.626;9.362;2023-06-10T10:59:58;28.70;65.70
5647;DHT22;2845;48.626;9.362;2023-06-10T11:02:40;28.80;65.30
5647;DHT22;2845;48.626;9.362;2023-06-10T11:05:17;29.00;66.00
5647;DHT22;2845;48.626;9.362;2023-06-10T11:07:56;29.20;65.30
5647;DHT22;2845;48.626;9.362;2023-06-10T11:10:32;29.20;65.10
5647;DHT22;2845;48.626;9.362;2023-06-10T11:13:10;29.20;65.60
5647;DHT22;2845;48.626;9.362;2023-06-10T11:15:49;29.30;66.10
5647;DHT22;2845;48.626;9.362;2023-06-10T11:18:25;29.30;65.50
5647;DHT22;2845;48.626;9.362;2023-06-10T11:21:00;30.50;66.30
5647;DHT22;2845;48.626;9.362;2023-06-10T11:23:41;29.10;64.80
5647;DHT22;2845;48.626;9.362;2023-06-10T11:26:29;29.20;63.90
5647;DHT22;2845;48.626;9.362;2023-06-10T11:29:09;29.00;64.40
5647;DHT22;2845;48.626;9.362;2023-06-10T11:31:45;28.60;64.40
5647;DHT22;2845;48.626;9.362;2023-06-10T11:34:23;28.50;65.60
5647;DHT22;2845;48.626;9.362;2023-06-10T11:36:59;28.20;66.10
5647;DHT22;2845;48.626;9.362;2023-06-10T11:39:33;28.00;65.50
5647;DHT22;2845;48.626;9.362;2023-06-10T11:42:08;28.10;65.10
5647;DHT22;2845;48.626;9.362;2023-06-10T11:44:51;28.10;64.40
5647;DHT22;2845;48.626;9.362;2023-06-10T11:47:25;27.90;65.50
5647;DHT22;2845;48.626;9.362;2023-06-10T11:50:01;27.80;65.30
5647;DHT22;2845;48.626;9.362;2023-06-10T11:52:35;28.00;65.70
5647;DHT22;2845;48.626;9.362;2023-06-10T11:55:14;28.10;65.30
5647;DHT22;2845;48.626;9.362;2023-06-10T11:57:48;28.50;64.20
5647;DHT22;2845;48.626;9.362;2023-06-10T12:00:31;28.60;64.70
5647;DHT22;2845;48.626;9.362;2023-06-10T12:03:05;28.80;64.10
5647;DHT22;2845;48.626;9.362;2023-06-10T12:05:39;28.80;65.00
5647;DHT22;2845;48.626;9.362;2023-06-10T12:08:14;29.00;65.10
5647;DHT22;2845;48.626;9.362;2023-06-10T12:10:48;29.00;63.70
5647;DHT22;2845;48.626;9.362;2023-06-10T12:13:22;29.20;63.80
5647;DHT22;2845;48.626;9.362;2023-06-10T12:16:07;29.10;63.90
5647;DHT22;2845;48.626;9.362;2023-06-10T12:18:44;29.30;63.80
5647;DHT22;2845;48.626;9.362;2023-06-10T12:21:19;29.70;62.70
5647;DHT22;2845;48.626;9.362;2023-06-10T12:24:06;29.70;63.30
5647;DHT22;2845;48.626;9.362;2023-06-10T12:26:42;29.70;62.50
5647;DHT22;2845;48.626;9.362;2023-06-10T12:29:19;29.80;63.10
5647;DHT22;2845;48.626;9.362;2023-06-10T12:31:58;29.60;63.70
5647;DHT22;2845;48.626;9.362;2023-06-10T12:34:36;29.70;63.30
5647;DHT22;2845;48.626;9.362;2023-06-10T12:37:12;29.70;62.20
5647;DHT22;2845;48.626;9.362;2023-06-10T12:39:51;29.80;60.90
5647;DHT22;2845;48.626;9.362;2023-06-10T12:42:26;29.70;62.10
5647;DHT22;2845;48.626;9.362;2023-06-10T12:45:00;29.70;61.60
5647;DHT22;2845;48.626;9.362;2023-06-10T12:47:37;29.60;61.90
5647;DHT22;2845;48.626;9.362;2023-06-10T12:50:12;29.50;62.10
5647;DHT22;2845;48.626;9.362;2023-06-10T12:52:46;29.30;62.10
5647;DHT22;2845;48.626;9.362;2023-06-10T12:55:20;29.30;61.20
5647;DHT22;2845;48.626;9.362;2023-06-10T12:57:55;29.20;62.20
5647;DHT22;2845;48.626;9.362;2023-06-10T13:00:30;29.60;62.60
5647;DHT22;2845;48.626;9.362;2023-06-10T13:03:05;29.40;61.20
5647;DHT22;2845;48.626;9.362;2023-06-10T13:05:40;32.40;63.30
5647;DHT22;2845;48.626;9.362;2023-06-10T13:08:14;29.50;61.80
5647;DHT22;2845;48.626;9.362;2023-06-10T13:10:48;29.30;61.20
5647;DHT22;2845;48.626;9.362;2023-06-10T13:13:22;30.00;62.30
5647;DHT22;2845;48.626;9.362;2023-06-10T13:15:58;29.20;62.40
5647;DHT22;2845;48.626;9.362;2023-06-10T13:18:35;29.20;61.20
5647;DHT22;2845;48.626;9.362;2023-06-10T13:21:10;29.80;62.00
5647;DHT22;2845;48.626;9.362;2023-06-10T13:23:47;30.10;61.20
5647;DHT22;2845;48.626;9.362;2023-06-10T13:26:22;30.20;61.20
5647;DHT22;2845;48.626;9.362;2023-06-10T13:28:56;30.50;60.80
5647;DHT22;2845;48.626;9.362;2023-06-10T13:31:31;30.80;61.10
5647;DHT22;2845;48.626;9.362;2023-06-10T13:34:07;30.80;60.50
5647;DHT22;2845;48.626;9.362;2023-06-10T13:36:41;30.90;60.50
5647;DHT22;2845;48.626;9.362;2023-06-10T13:39:15;30.90;60.20
5647;DHT22;2845;48.626;9.362;2023-06-10T13:41:49;30.90;60.00
5647;DHT22;2845;48.626;9.362;2023-06-10T13:44:24;30.80;59.90
5647;DHT22;2845;48.626;9.362;2023-06-10T13:46:59;30.90;60.20
5647;DHT22;2845;48.626;9.362;2023-06-10T13:49:34;31.30;59.90
5647;DHT22;2845;48.626;9.362;2023-06-10T13:52:09;31.20;60.00
5647;DHT22;2845;48.626;9.362;2023-06-10T13:54:43;31.20;59.70
5647;DHT22;2845;48.626;9.362;2023-06-10T13:57:17;31.30;60.30
5647;DHT22;2845;48.626;9.362;2023-06-10T13:59:51;30.70;60.60
5647;DHT22;2845;48.626;9.362;2023-06-10T14:02:25;30.30;60.40
5647;DHT22;2845;48.626;9.362;2023-06-10T14:05:01;30.10;61.10
5647;DHT22;2845;48.626;9.362;2023-06-10T14:07:35;30.20;61.40
5647;DHT22;2845;48.626;9.362;2023-06-10T14:10:10;30.40;59.10
5647;DHT22;2845;48.626;9.362;2023-06-10T14:12:45;30.40;60.70
5647;DHT22;2845;48.626;9.362;2023-06-10T14:15:19;30.20;60.40
5647;DHT22;2845;48.626;9.362;2023-06-10T14:17:53;30.20;60.00
5647;DHT22;2845;48.626;9.362;2023-06-10T14:20:29;30.60;59.40
5647;DHT22;2845;48.626;9.362;2023-06-10T14:23:04;31.00;60.30
5647;DHT22;2845;48.626;9.362;2023-06-10T14:25:38;31.40;59.70
5647;DHT22;2845;48.626;9.362;2023-06-10T14:28:12;31.70;58.60
5647;DHT22;2845;48.626;9.362;2023-06-10T14:30:46;31.40;59.60
5647;DHT22;2845;48.626;9.362;2023-06-10T14:33:20;31.30;59.30
5647;DHT22;2845;48.626;9.362;2023-06-10T14:35:56;31.10;60.10
5647;DHT22;2845;48.626;9.362;2023-06-10T14:38:30;31.40;59.70
5647;DHT22;2845;48.626;9.362;2023-06-10T14:41:04;30.70;60.00
5647;DHT22;2845;48.626;9.362;2023-06-10T14:43:38;30.30;60.40
5647;DHT22;2845;48.626;9.362;2023-06-10T14:46:12;29.90;61.10
5647;DHT22;2845;48.626;9.362;2023-06-10T14:48:46;29.80;60.80
5647;DHT22;2845;48.626;9.362;2023-06-10T14:51:23;29.90;61.40
5647;DHT22;2845;48.626;9.362;2023-06-10T14:53:57;30.10;60.90
5647;DHT22;2845;48.626;9.362;2023-06-10T14:56:31;30.40;60.10
5647;DHT22;2845;48.626;9.362;2023-06-10T14:59:05;30.60;60.20
5647;DHT22;2845;48.626;9.362;2023-06-10T15:01:39;30.70;58.80
5647;DHT22;2845;48.626;9.362;2023-06-10T15:04:14;31.10;59.70
5647;DHT22;2845;48.626;9.362;2023-06-10T15:06:49;30.80;59.80
5647;DHT22;2845;48.626;9.362;2023-06-10T15:09:24;30.30;60.40
5647;DHT22;2845;48.626;9.362;2023-06-10T15:11:58;29.80;61.40
5647;DHT22;2845;48.626;9.362;2023-06-10T15:14:33;29.50;62.20
5647;DHT22;2845;48.626;9.362;2023-06-10T15:17:07;29.30;62.30
5647;DHT22;2845;48.626;9.362;2023-06-10T15:19:41;29.10;62.50
5647;DHT22;2845;48.626;9.362;2023-06-10T15:22:17;28.80;62.80
5647;DHT22;2845;48.626;9.362;2023-06-10T15:24:51;28.70;63.30
5647;DHT22;2845;48.626;9.362;2023-06-10T15:27:25;28.60;62.00
5647;DHT22;2845;48.626;9.362;2023-06-10T15:29:59;28.70;62.70
5647;DHT22;2845;48.626;9.362;2023-06-10T15:32:33;28.90;62.80
5647;DHT22;2845;48.626;9.362;2023-06-10T15:35:08;29.00;62.90
5647;DHT22;2845;48.626;9.362;2023-06-10T15:37:44;29.10;63.00
5647;DHT22;2845;48.626;9.362;2023-06-10T15:40:18;29.20;63.10
5647;DHT22;2845;48.626;9.362;2023-06-10T15:42:52;29.20;63.30
5647;DHT22;2845;48.626;9.362;2023-06-10T15:45:27;29.00;62.20
5647;DHT22;2845;48.626;9.362;2023-06-10T15:48:01;28.20;62.20
5647;DHT22;2845;48.626;9.362;2023-06-10T15:50:35;29.40;63.00
5647;DHT22;2845;48.626;9.362;2023-06-10T15:53:10;29.30;63.10
5647;DHT22;2845;48.626;9.362;2023-06-10T15:55:44;28.70;62.70
5647;DHT22;2845;48.626;9.362;2023-06-10T15:58:19;28.50;62.70
5647;DHT22;2845;48.626;9.362;2023-06-10T16:00:53;28.50;62.80
5647;DHT22;2845;48.626;9.362;2023-06-10T16:03:27;28.60;63.20
5647;DHT22;2845;48.626;9.362;2023-06-10T16:06:01;28.30;63.80
5647;DHT22;2845;48.626;9.362;2023-06-10T16:08:37;28.50;63.60
5647;DHT22;2845;48.626;9.362;2023-06-10T16:11:11;28.70;63.10
5647;DHT22;2845;48.626;9.362;2023-06-10T16:13:45;28.80;63.00
5647;DHT22;2845;48.626;9.362;2023-06-10T16:16:19;29.20;63.10
5647;DHT22;2845;48.626;9.362;2023-06-10T16:18:53;28.60;62.60
5647;DHT22;2845;48.626;9.362;2023-06-10T16:21:27;28.60;62.50
5647;DHT22;2845;48.626;9.362;2023-06-10T16:24:03;28.50;63.10
5647;DHT22;2845;48.626;9.362;2023-06-10T16:26:38;28.20;62.70
5647;DHT22;2845;48.626;9.362;2023-06-10T16:29:12;29.40;63.60
5647;DHT22;2845;48.626;9.362;2023-06-10T16:31:46;28.00;63.10
5647;DHT22;2845;48.626;9.362;2023-06-10T16:34:21;28.00;62.70
5647;DHT22;2845;48.626;9.362;2023-06-10T16:36:56;28.00;63.20
5647;DHT22;2845;48.626;9.362;2023-06-10T16:39:31;28.00;63.00
5647;DHT22;2845;48.626;9.362;2023-06-10T16:42:05;28.00;62.20
5647;DHT22;2845;48.626;9.362;2023-06-10T16:44:40;28.10;62.40
5647;DHT22;2845;48.626;9.362;2023-06-10T16:47:14;28.00;61.60
5647;DHT22;2845;48.626;9.362;2023-06-10T16:49:48;27.90;61.50
5647;DHT22;2845;48.626;9.362;2023-06-10T16:52:22;27.80;61.60
5647;DHT22;2845;48.626;9.362;2023-06-10T16:54:58;28.00;62.40